createdAt,value
2017-05-01T00:01:23.919Z,6.38
2017-05-01T00:03:52.879Z,7.00
2017-05-01T00:06:21.837Z,7.17
2017-05-01T00:08:51.543Z,7.25
2017-05-01T00:11:21.250Z,6.43
2017-05-01T00:13:50.531Z,6.60
2017-05-01T00:16:19.513Z,6.40
2017-05-01T00:18:48.382Z,6.78
2017-05-01T00:21:17.401Z,6.60
2017-05-01T00:23:46.342Z,7.50
2017-05-01T00:26:15.672Z,7.27
2017-05-01T00:28:44.645Z,6.37
2017-05-01T00:31:13.597Z,6.32
2017-05-01T00:33:43.621Z,7.38
2017-05-01T00:36:13.336Z,7.63
2017-05-01T00:38:42.282Z,7.85
2017-05-01T00:41:11.462Z,7.85
2017-05-01T00:43:40.424Z,7.30
2017-05-01T00:46:09.690Z,6.88
2017-05-01T00:48:39.395Z,6.93
2017-05-01T00:51:08.414Z,8.20
2017-05-01T00:53:37.764Z,8.00
2017-05-01T00:56:06.729Z,8.15
2017-05-01T00:58:35.690Z,7.72
2017-05-01T01:01:05.069Z,7.50
2017-05-01T01:03:34.773Z,7.58
2017-05-01T01:06:04.770Z,7.88
2017-05-01T01:08:33.741Z,6.85
2017-05-01T01:11:22.852Z,7.73
2017-05-01T01:13:52.562Z,7.30
2017-05-01T01:16:22.603Z,7.10
2017-05-01T01:18:51.562Z,7.95
2017-05-01T01:21:20.551Z,6.98
2017-05-01T01:23:50.270Z,7.73
2017-05-01T01:26:19.960Z,7.65
2017-05-01T01:28:49.197Z,7.83
2017-05-01T01:31:18.160Z,7.37
2017-05-01T01:33:47.859Z,7.80
2017-05-01T01:36:17.573Z,8.18
2017-05-01T01:38:47.259Z,7.05
2017-05-01T01:41:16.549Z,7.55
2017-05-01T01:43:45.495Z,9.07
2017-05-01T01:46:14.454Z,8.53
2017-05-01T01:48:43.402Z,7.70
2017-05-01T01:51:12.374Z,7.30
2017-05-01T01:53:41.630Z,8.28
2017-05-01T01:56:10.565Z,8.15
2017-05-01T01:58:39.499Z,7.60
2017-05-01T02:01:08.798Z,7.63
2017-05-01T02:03:37.801Z,8.13
2017-05-01T02:06:06.795Z,7.70
2017-05-01T02:08:36.484Z,7.10
2017-05-01T02:11:05.440Z,7.55
2017-05-01T02:13:34.985Z,8.38
2017-05-01T02:16:03.943Z,7.80
2017-05-01T02:18:33.258Z,8.22
2017-05-01T02:21:02.206Z,7.63
2017-05-01T02:23:31.168Z,7.78
2017-05-01T02:26:00.902Z,7.98
2017-05-01T02:28:29.884Z,7.40
2017-05-01T02:30:59.195Z,7.52
2017-05-01T02:33:28.265Z,7.60
2017-05-01T02:35:57.975Z,8.13
2017-05-01T02:38:27.672Z,8.13
2017-05-01T02:40:57.364Z,8.55
2017-05-01T02:43:26.637Z,7.65
2017-05-01T02:45:55.584Z,6.73
2017-05-01T02:48:25.261Z,9.38
2017-05-01T02:50:54.474Z,8.05
2017-05-01T02:53:24.179Z,8.70
2017-05-01T02:55:54.362Z,8.80
2017-05-01T02:58:23.340Z,8.83
2017-05-01T03:00:52.297Z,9.03
2017-05-01T03:03:21.264Z,8.85
2017-05-01T03:05:50.967Z,8.78
2017-05-01T03:08:20.218Z,9.23
2017-05-01T03:10:49.163Z,8.78
2017-05-01T03:13:18.887Z,9.15
2017-05-01T03:15:48.599Z,9.32
2017-05-01T03:18:17.535Z,9.07
2017-05-01T03:20:46.791Z,9.15
2017-05-01T03:23:19.101Z,10.20
2017-05-01T03:25:48.747Z,9.20
2017-05-01T03:28:17.830Z,9.87
2017-05-01T03:30:46.785Z,10.18
2017-05-01T03:33:15.753Z,8.87
2017-05-01T03:35:44.691Z,9.75
2017-05-01T03:38:13.987Z,10.27
2017-05-01T03:40:43.012Z,9.62
2017-05-01T03:43:12.734Z,10.08
2017-05-01T03:45:42.086Z,9.98
2017-05-01T03:48:11.032Z,10.22
2017-05-01T03:50:40.002Z,10.08
2017-05-01T03:53:09.716Z,9.37
2017-05-01T03:55:38.661Z,9.72
2017-05-01T03:58:07.925Z,10.65
2017-05-01T04:00:36.886Z,10.00
2017-05-01T04:03:06.583Z,9.80
2017-05-01T04:05:36.328Z,9.98
2017-05-01T04:08:05.337Z,9.62
2017-05-01T04:10:34.649Z,9.98
2017-05-01T04:13:03.617Z,9.03
2017-05-01T04:15:32.598Z,10.70
2017-05-01T04:18:01.600Z,9.68
2017-05-01T04:20:30.582Z,9.28
2017-05-01T04:23:00.023Z,8.95
2017-05-01T04:25:28.988Z,9.93
2017-05-01T04:27:58.029Z,8.92
2017-05-01T04:30:28.104Z,10.08
2017-05-01T04:32:57.064Z,9.55
2017-05-01T04:35:26.036Z,11.10
2017-05-01T04:37:56.108Z,11.67
2017-05-01T04:40:25.064Z,13.42
2017-05-01T04:42:54.041Z,9.68
2017-05-01T04:45:23.764Z,10.12
2017-05-01T04:47:52.762Z,11.42
2017-05-01T04:50:22.083Z,9.85
2017-05-01T04:52:51.058Z,9.88
2017-05-01T04:55:20.017Z,8.88
2017-05-01T04:57:50.077Z,8.97
2017-05-01T05:00:19.039Z,10.05
2017-05-01T05:02:48.018Z,8.48
2017-05-01T05:05:16.991Z,9.28
2017-05-01T05:07:46.691Z,8.80
2017-05-01T05:10:15.938Z,10.62
2017-05-01T05:12:44.907Z,9.67
2017-05-01T05:15:13.863Z,8.87
2017-05-01T05:17:42.855Z,10.10
2017-05-01T05:20:11.841Z,9.52
2017-05-01T05:22:41.056Z,9.33
2017-05-01T05:25:10.753Z,9.42
2017-05-01T05:27:39.693Z,8.30
2017-05-01T05:30:08.686Z,8.75
2017-05-01T05:32:37.636Z,9.95
2017-05-01T05:35:07.718Z,10.32
2017-05-01T05:37:36.683Z,10.68
2017-05-01T05:40:05.654Z,10.83
2017-05-01T05:42:34.645Z,9.87
2017-05-01T05:45:03.609Z,11.23
2017-05-01T05:47:33.614Z,11.27
2017-05-01T05:50:02.612Z,11.30
2017-05-01T05:52:32.317Z,10.55
2017-05-01T05:55:01.302Z,11.12
2017-05-01T05:57:30.293Z,10.10
2017-05-01T05:59:59.568Z,10.52
2017-05-01T06:02:28.542Z,11.53
2017-05-01T06:04:57.515Z,11.02
2017-05-01T06:07:26.510Z,10.93
2017-05-01T06:09:55.472Z,10.38
2017-05-01T06:12:25.459Z,10.58
2017-05-01T06:14:54.455Z,11.25
2017-05-01T06:17:23.434Z,10.03
2017-05-01T06:19:52.406Z,9.67
2017-05-01T06:22:21.389Z,10.93
2017-05-01T06:24:50.737Z,12.35
2017-05-01T06:27:19.701Z,10.83
2017-05-01T06:29:48.650Z,10.68
2017-05-01T06:32:17.964Z,9.37
2017-05-01T06:34:46.939Z,9.78
2017-05-01T06:37:15.907Z,9.62
2017-05-01T06:39:45.279Z,11.05
2017-05-01T06:42:14.237Z,10.73
2017-05-01T06:44:43.213Z,10.78
2017-05-01T06:47:12.202Z,11.62
2017-05-01T06:49:41.182Z,9.62
2017-05-01T06:52:11.257Z,8.87
2017-05-01T06:54:40.220Z,10.25
2017-05-01T06:57:09.186Z,9.35
2017-05-01T06:59:38.910Z,8.83
2017-05-01T07:02:07.889Z,9.52
2017-05-01T07:04:37.231Z,10.55
2017-05-01T07:07:06.200Z,9.37
2017-05-01T07:09:35.159Z,10.33
2017-05-01T07:12:04.810Z,9.68
2017-05-01T07:14:33.832Z,7.90
2017-05-01T07:17:03.139Z,9.22
2017-05-01T07:19:32.117Z,8.70
2017-05-01T07:22:01.845Z,8.38
2017-05-01T07:24:31.580Z,7.68
2017-05-01T07:27:00.570Z,7.82
2017-05-01T07:29:29.903Z,7.35
2017-05-01T07:31:58.867Z,8.45
2017-05-01T07:34:27.821Z,6.75
2017-05-01T07:36:56.784Z,7.00
2017-05-01T07:39:25.746Z,6.90
2017-05-01T07:41:55.150Z,6.65
2017-05-01T07:44:24.101Z,6.00
2017-05-01T07:46:53.812Z,7.18
2017-05-01T07:49:23.530Z,6.80
2017-05-01T07:51:52.511Z,6.75
2017-05-01T07:54:22.501Z,6.27
2017-05-01T07:56:51.458Z,6.72
2017-05-01T07:59:20.407Z,6.78
2017-05-01T08:01:50.479Z,6.50
2017-05-01T08:04:19.465Z,7.12
2017-05-01T08:06:48.433Z,7.52
2017-05-01T08:09:17.401Z,6.45
2017-05-01T08:11:47.099Z,6.57
2017-05-01T08:14:17.105Z,6.63
2017-05-01T08:16:46.064Z,5.97
2017-05-01T08:19:15.031Z,6.13
2017-05-01T08:21:44.362Z,5.92
2017-05-01T08:24:13.327Z,7.12
2017-05-01T08:26:42.309Z,6.42
2017-05-01T08:29:11.289Z,5.95
2017-05-01T08:31:40.356Z,6.02
2017-05-01T08:34:10.376Z,6.30
2017-05-01T08:36:40.015Z,6.18
2017-05-01T08:39:09.009Z,5.55
2017-05-01T08:41:38.008Z,5.98
2017-05-01T08:44:06.976Z,5.25
2017-05-01T08:46:36.322Z,5.02
2017-05-01T08:49:05.288Z,5.30
2017-05-01T08:51:34.258Z,5.58
2017-05-01T08:54:03.263Z,4.95
2017-05-01T08:56:32.231Z,5.75
2017-05-01T08:59:01.649Z,6.10
2017-05-01T09:01:30.630Z,5.64
2017-05-01T09:03:59.610Z,6.10
2017-05-01T09:06:29.678Z,5.54
2017-05-01T09:08:58.653Z,5.46
2017-05-01T09:11:27.616Z,6.16
2017-05-01T09:13:56.600Z,7.38
2017-05-01T09:16:25.558Z,6.74
2017-05-01T09:18:54.844Z,7.04
2017-05-01T09:21:23.804Z,5.88
2017-05-01T09:23:52.763Z,6.54
2017-05-01T09:26:22.538Z,6.10
2017-05-01T09:28:51.498Z,6.68
2017-05-01T09:31:20.781Z,6.90
2017-05-01T09:33:49.745Z,7.96
2017-05-01T09:36:19.471Z,7.66
2017-05-01T09:38:48.814Z,7.06
2017-05-01T09:41:17.871Z,6.70
2017-05-01T09:43:46.841Z,7.00
2017-05-01T09:46:16.561Z,6.96
2017-05-01T09:48:45.530Z,7.10
2017-05-01T09:51:15.537Z,7.38
2017-05-01T09:53:44.514Z,7.60
2017-05-01T09:56:13.490Z,7.44
2017-05-01T09:58:42.818Z,7.56
2017-05-01T10:01:11.796Z,7.88
2017-05-01T10:03:40.787Z,7.06
2017-05-01T10:06:09.751Z,7.02
2017-05-01T10:08:38.727Z,7.76
2017-05-01T10:11:08.066Z,7.92
2017-05-01T10:13:37.039Z,7.82
2017-05-01T10:16:06.003Z,8.26
2017-05-01T10:18:35.313Z,8.74
2017-05-01T10:21:04.297Z,7.58
2017-05-01T10:23:33.289Z,7.90
2017-05-01T10:26:02.314Z,8.38
2017-05-01T10:28:31.293Z,8.32
2017-05-01T10:31:00.584Z,7.74
2017-05-01T10:33:29.534Z,9.10
2017-05-01T10:35:59.252Z,9.32
2017-05-01T10:38:28.540Z,9.68
2017-05-01T10:40:57.551Z,9.08
2017-05-01T10:43:26.519Z,7.70
2017-05-01T10:45:56.251Z,7.60
2017-05-01T10:48:25.212Z,7.82
2017-05-01T10:50:54.585Z,8.28
2017-05-01T10:53:23.540Z,7.70
2017-05-01T10:55:52.527Z,8.30
2017-05-01T10:58:21.503Z,8.08
2017-05-01T11:00:50.588Z,7.96
2017-05-01T11:03:20.678Z,7.12
2017-05-01T11:05:49.632Z,7.80
2017-05-01T11:08:18.731Z,6.80
2017-05-01T11:10:47.745Z,7.98
2017-05-01T11:13:16.728Z,8.52
2017-05-01T11:15:46.033Z,9.38
2017-05-01T11:18:14.980Z,10.06
2017-05-01T11:20:43.959Z,10.12
2017-05-01T11:23:12.961Z,10.24
2017-05-01T11:25:41.953Z,8.86
2017-05-01T11:28:11.272Z,10.40
2017-05-01T11:30:40.232Z,11.00
2017-05-01T11:33:09.224Z,10.36
2017-05-01T11:35:38.787Z,10.02
2017-05-01T11:38:07.763Z,10.88
2017-05-01T11:40:36.727Z,11.92
2017-05-01T11:43:05.715Z,11.62
2017-05-01T11:45:34.677Z,10.34
2017-05-01T11:48:04.681Z,13.02
2017-05-01T11:50:33.644Z,12.86
2017-05-01T11:53:02.671Z,12.84
2017-05-01T11:55:32.760Z,13.40
2017-05-01T11:58:01.674Z,13.16
2017-05-01T12:00:31.396Z,11.10
2017-05-01T12:03:01.092Z,12.20
2017-05-01T12:05:30.825Z,13.52
2017-05-01T12:08:00.146Z,10.90
2017-05-01T12:10:29.138Z,12.68
2017-05-01T12:12:58.113Z,11.80
2017-05-01T12:15:27.072Z,10.50
2017-05-01T12:17:56.077Z,11.66
2017-05-01T12:20:25.422Z,13.04
2017-05-01T12:22:54.395Z,12.26
2017-05-01T12:25:23.368Z,11.28
2017-05-01T12:27:52.728Z,11.76
2017-05-01T12:30:21.709Z,12.56
2017-05-01T12:32:50.696Z,13.56
2017-05-01T12:35:19.705Z,11.36
2017-05-01T12:37:48.632Z,13.06
2017-05-01T12:40:17.977Z,15.32
2017-05-01T12:42:46.931Z,12.18
2017-05-01T12:45:15.903Z,12.80
2017-05-01T12:47:44.966Z,12.26
2017-05-01T12:50:13.933Z,12.22
2017-05-01T12:52:43.236Z,12.10
2017-05-01T12:55:12.204Z,12.18
2017-05-01T12:57:41.180Z,11.84
2017-05-01T13:00:10.495Z,12.12
2017-05-01T13:02:39.461Z,11.22
2017-05-01T13:05:08.422Z,11.96
2017-05-01T13:07:37.417Z,11.20
2017-05-01T13:10:07.122Z,11.76
2017-05-01T13:12:36.108Z,12.90
2017-05-01T13:15:05.092Z,11.80
2017-05-01T13:17:34.490Z,11.40
2017-05-01T13:20:03.471Z,11.60
2017-05-01T13:22:32.442Z,9.52
2017-05-01T13:25:01.460Z,9.68
2017-05-01T13:27:30.432Z,10.54
2017-05-01T13:29:59.761Z,11.82
2017-05-01T13:32:28.772Z,11.64
2017-05-01T13:34:58.517Z,11.70
2017-05-01T13:37:27.787Z,11.90
2017-05-01T13:39:56.775Z,10.06
2017-05-01T13:42:26.487Z,10.72
2017-05-01T13:44:55.820Z,9.56
2017-05-01T13:47:24.876Z,8.76
2017-05-01T13:49:53.856Z,9.52
2017-05-01T13:52:23.617Z,11.16
2017-05-01T13:54:52.590Z,10.68
2017-05-01T13:57:21.927Z,11.02
2017-05-01T13:59:51.037Z,10.20
2017-05-01T14:02:20.009Z,11.22
2017-05-01T14:04:49.089Z,10.44
2017-05-01T14:07:18.845Z,9.98
2017-05-01T14:09:48.912Z,11.56
2017-05-01T14:12:17.878Z,10.62
2017-05-01T14:14:46.852Z,11.64
2017-05-01T14:17:16.925Z,10.94
2017-05-01T14:19:45.902Z,9.80
2017-05-01T14:22:14.887Z,9.68
2017-05-01T14:24:44.250Z,8.88
2017-05-01T14:27:13.955Z,10.32
2017-05-01T14:29:42.946Z,9.04
2017-05-01T14:32:12.693Z,8.50
2017-05-01T14:34:41.666Z,8.98
2017-05-01T14:37:11.006Z,8.66
2017-05-01T14:39:39.969Z,8.86
2017-05-01T14:42:08.935Z,7.96
2017-05-01T14:44:37.956Z,7.55
2017-05-01T14:47:06.921Z,7.03
2017-05-01T14:49:36.266Z,7.72
2017-05-01T14:52:05.189Z,7.25
2017-05-01T14:54:34.166Z,7.00
2017-05-01T14:57:03.453Z,7.35
2017-05-01T14:59:32.426Z,18.78
2017-05-01T15:02:01.379Z,4.33
2017-05-01T15:04:30.380Z,19.58
2017-05-01T15:06:59.357Z,11.67
2017-05-01T15:09:28.724Z,6.90
2017-05-01T15:11:57.732Z,2.38
2017-05-01T15:14:27.514Z,3.70
2017-05-01T15:16:56.781Z,1.82
2017-05-01T15:19:25.743Z,1.72
2017-05-01T15:21:54.736Z,1.55
2017-05-01T15:24:23.724Z,0.87
2017-05-01T15:26:53.442Z,1.02
2017-05-01T15:29:22.790Z,0.72
2017-05-01T15:31:51.762Z,0.73
2017-05-01T15:34:20.723Z,1.42
2017-05-01T15:36:49.717Z,1.62
2017-05-01T15:39:18.663Z,0.88
2017-05-01T15:41:47.949Z,0.80
2017-05-01T15:44:16.925Z,0.93
2017-05-01T15:46:45.902Z,1.00
2017-05-01T15:49:14.893Z,0.93
2017-05-01T15:51:43.843Z,0.72
2017-05-01T15:54:13.954Z,0.65
2017-05-01T15:56:43.695Z,0.70
2017-05-01T15:59:12.814Z,0.70
2017-05-01T16:01:42.144Z,0.78
2017-05-01T16:04:11.130Z,0.60
2017-05-01T16:06:40.115Z,0.80
2017-05-01T16:09:09.100Z,0.87
2017-05-01T16:11:38.092Z,0.97
2017-05-01T16:14:07.413Z,1.03
2017-05-01T16:16:36.399Z,1.15
2017-05-01T16:19:05.384Z,2.00
2017-05-01T16:21:34.407Z,0.87
2017-05-01T16:24:04.122Z,1.20
2017-05-01T16:26:34.226Z,0.92
2017-05-01T16:29:03.966Z,1.15
2017-05-01T16:31:32.973Z,1.03
2017-05-01T16:34:01.985Z,1.12
2017-05-01T16:36:30.955Z,1.60
2017-05-01T16:39:00.277Z,1.63
2017-05-01T16:41:29.276Z,1.30
2017-05-01T16:43:58.294Z,1.38
2017-05-01T16:46:28.075Z,1.50
2017-05-01T16:48:57.083Z,1.63
2017-05-01T16:51:27.173Z,1.10
2017-05-01T16:53:56.164Z,2.07
2017-05-01T16:56:25.158Z,2.02
2017-05-01T16:58:54.505Z,1.95
2017-05-01T17:01:23.502Z,1.65
2017-05-01T17:03:52.503Z,1.50
2017-05-01T17:06:21.858Z,1.50
2017-05-01T17:08:50.859Z,3.05
2017-05-01T17:11:20.677Z,2.15
2017-05-01T17:13:49.751Z,2.73
2017-05-01T17:16:18.758Z,1.90
2017-05-01T17:18:48.872Z,3.85
2017-05-01T17:21:18.631Z,2.20
2017-05-01T17:23:47.628Z,1.25
2017-05-01T17:26:16.984Z,1.65
2017-05-01T17:28:45.989Z,1.13
2017-05-01T17:31:14.976Z,1.22
2017-05-01T17:33:44.342Z,1.28
2017-05-01T17:36:13.352Z,1.25
2017-05-01T17:38:43.108Z,1.03
2017-05-01T17:41:12.447Z,1.15
2017-05-01T17:43:41.457Z,1.18
2017-05-01T17:46:11.203Z,0.90
2017-05-01T17:48:40.615Z,1.32
2017-05-01T17:51:09.642Z,1.30
2017-05-01T17:53:38.643Z,1.82
2017-05-01T17:56:08.797Z,1.45
2017-05-01T17:58:37.823Z,1.63
2017-05-01T18:01:06.846Z,2.22
2017-05-01T18:03:36.643Z,2.17
2017-05-01T18:06:05.665Z,1.57
2017-05-01T18:08:35.127Z,1.95
2017-05-01T18:11:04.145Z,1.72
2017-05-01T18:13:33.904Z,2.45
2017-05-01T18:16:02.937Z,1.75
2017-05-01T18:18:32.653Z,1.87
2017-05-01T18:21:02.754Z,1.58
2017-05-01T18:23:31.746Z,1.78
2017-05-01T18:26:00.820Z,1.70
2017-05-01T18:28:30.241Z,1.40
2017-05-01T18:30:59.243Z,1.68
2017-05-01T18:33:28.950Z,1.80
2017-05-01T18:35:58.035Z,1.63
2017-05-01T18:38:27.038Z,1.57
2017-05-01T18:40:57.146Z,1.67
2017-05-01T18:43:26.273Z,1.55
2017-05-01T18:45:55.280Z,1.78
2017-05-01T18:48:24.263Z,2.20
2017-05-01T18:50:53.388Z,1.68
2017-05-01T18:53:22.753Z,1.50
2017-05-01T18:55:51.802Z,1.78
2017-05-01T18:58:20.866Z,1.80
2017-05-01T19:00:49.912Z,1.02
2017-05-01T19:03:19.635Z,1.25
2017-05-01T19:05:49.015Z,1.20
2017-05-01T19:08:18.782Z,1.35
2017-05-01T19:10:47.781Z,1.22
2017-05-01T19:13:17.202Z,1.27
2017-05-01T19:15:46.222Z,1.22
2017-05-01T19:18:15.222Z,3.63
2017-05-01T19:20:44.473Z,2.30
2017-05-01T19:23:13.492Z,2.02
2017-05-01T19:25:43.583Z,2.33
2017-05-01T19:28:12.811Z,3.42
2017-05-01T19:30:42.575Z,2.77
2017-05-01T19:33:11.864Z,1.63
2017-05-01T19:35:40.860Z,2.00
2017-05-01T19:38:09.857Z,1.67
2017-05-01T19:40:38.851Z,1.68
2017-05-01T19:43:07.845Z,1.58
2017-05-01T19:45:37.279Z,1.72
2017-05-01T19:48:07.011Z,1.67
2017-05-01T19:50:36.036Z,1.30
2017-05-01T19:53:05.031Z,2.30
2017-05-01T19:55:35.223Z,1.52
2017-05-01T19:58:04.610Z,1.60
2017-05-01T20:00:33.651Z,1.95
2017-05-01T20:03:02.664Z,2.83
2017-05-01T20:05:32.423Z,2.20
2017-05-01T20:08:01.409Z,1.93
2017-05-01T20:10:30.809Z,1.67
2017-05-01T20:12:59.832Z,1.80
2017-05-01T20:15:28.835Z,2.02
2017-05-01T20:17:58.149Z,1.48
2017-05-01T20:20:27.915Z,1.85
2017-05-01T20:22:56.904Z,1.63
2017-05-01T20:25:26.243Z,1.88
2017-05-01T20:27:55.428Z,1.60
2017-05-01T20:30:24.391Z,1.97
2017-05-01T20:32:53.363Z,1.70
2017-05-01T20:35:22.346Z,1.37
2017-05-01T20:37:51.620Z,1.92
2017-05-01T20:40:21.333Z,1.78
2017-05-01T20:42:51.422Z,1.70
2017-05-01T20:45:20.385Z,1.55
2017-05-01T20:47:49.414Z,1.30
2017-05-01T20:50:19.514Z,1.37
2017-05-01T20:52:48.468Z,1.45
2017-05-01T20:55:17.457Z,1.30
2017-05-01T20:57:46.794Z,1.10
2017-05-01T21:00:15.778Z,1.20
2017-05-01T21:02:44.748Z,1.18
2017-05-01T21:05:14.076Z,0.98
2017-05-01T21:07:43.149Z,1.20
2017-05-01T21:10:12.169Z,0.95
2017-05-01T21:12:41.419Z,1.25
2017-05-01T21:15:10.373Z,1.53
2017-05-01T21:17:39.330Z,1.30
2017-05-01T21:20:08.629Z,1.18
2017-05-01T21:22:37.609Z,1.30
2017-05-01T21:25:06.619Z,1.33
2017-05-01T21:27:35.924Z,1.45
2017-05-01T21:30:04.873Z,1.32
2017-05-01T21:32:33.852Z,1.22
2017-05-01T21:35:02.834Z,1.12
2017-05-01T21:37:31.836Z,1.18
2017-05-01T21:40:01.179Z,1.02
2017-05-01T21:42:30.156Z,1.32
2017-05-01T21:44:59.126Z,1.10
2017-05-01T21:47:28.090Z,1.07
2017-05-01T21:49:57.775Z,1.20
2017-05-01T21:52:27.039Z,0.95
2017-05-01T21:54:55.993Z,1.10
2017-05-01T21:57:24.971Z,1.20
2017-05-01T21:59:54.688Z,1.30
2017-05-01T22:02:23.568Z,1.48
2017-05-01T22:04:52.909Z,0.98
2017-05-01T22:07:21.861Z,0.97
2017-05-01T22:09:51.653Z,1.43
2017-05-01T22:12:20.606Z,1.35
2017-05-01T22:14:49.544Z,1.03
2017-05-01T22:17:19.544Z,1.52
2017-05-01T22:19:48.490Z,1.17
2017-05-01T22:22:17.449Z,1.20
2017-05-01T22:24:47.214Z,1.08
2017-05-01T22:27:16.166Z,1.33
2017-05-01T22:29:45.520Z,1.30
2017-05-01T22:32:14.562Z,1.52
2017-05-01T22:34:43.510Z,1.53
2017-05-01T22:37:12.485Z,1.35
2017-05-01T22:39:41.457Z,1.62
2017-05-01T22:42:10.865Z,1.65
2017-05-01T22:44:39.791Z,1.50
2017-05-01T22:47:08.754Z,1.32
2017-05-01T22:49:37.731Z,1.80
2017-05-01T22:52:06.719Z,1.70
2017-05-01T22:54:36.034Z,1.28
2017-05-01T22:57:05.157Z,1.35
2017-05-01T22:59:34.917Z,1.88
2017-05-01T23:02:03.894Z,1.33
2017-05-01T23:04:32.856Z,1.37
2017-05-01T23:07:02.841Z,1.40
2017-05-01T23:09:31.750Z,0.85
2017-05-01T23:12:00.730Z,1.27
2017-05-01T23:14:29.711Z,0.90
2017-05-01T23:16:58.657Z,0.80
2017-05-01T23:19:27.979Z,0.85
2017-05-01T23:21:56.864Z,1.10
2017-05-01T23:24:25.849Z,0.90
2017-05-01T23:26:54.825Z,1.00
2017-05-01T23:29:23.792Z,0.80
2017-05-01T23:31:53.836Z,0.73
2017-05-01T23:34:22.770Z,0.70
2017-05-01T23:36:51.727Z,0.80
2017-05-01T23:39:21.076Z,0.70
2017-05-01T23:41:50.758Z,0.80
2017-05-01T23:44:19.702Z,0.60
2017-05-01T23:46:48.679Z,0.80
2017-05-01T23:49:18.380Z,0.60
2017-05-01T23:51:48.350Z,0.65
2017-05-01T23:54:17.298Z,0.87
2017-05-01T23:56:46.241Z,0.85
2017-05-01T23:59:15.196Z,0.70
